Time;durP1;ratioP1;P1;durP2;ratioP2;P2;SDS_P1;SDS_P2;PMS_P1;PMS_P2;Temp;Humidity;BMP_temperature;BMP_pressure;BME280_temperature;BME280_humidity;BME280_pressure;Samples;Min_cycle;Max_cycle;Signal;HPM_P1;HPM_P2
2022/01/07 00:04:28;;;;;;;11.73;7.65;;;;;;;3.09;73.93;100459.44;10448217;28;21262;-61
2022/01/07 00:09:30;;;;;;;13.63;8.55;;;;;;;3.10;74.84;100467.25;10446837;28;20050;-61
2022/01/07 00:14:31;;;;;;;13.48;7.13;;;;;;;3.05;74.90;100449.97;10447875;28;20053;-62
2022/01/07 00:19:33;;;;;;;12.48;8.23;;;;;;;2.80;75.72;100438.78;10443743;28;20056;-61
2022/01/07 00:24:35;;;;;;;14.63;8.57;;;;;;;3.06;75.74;100459.56;10448078;28;20048;-61
2022/01/07 00:29:36;;;;;;;11.00;8.27;;;;;;;3.01;75.86;100454.53;10447167;28;20067;-60
2022/01/07 00:34:38;;;;;;;12.27;7.97;;;;;;;3.12;75.73;100456.66;10446833;28;20064;-60
2022/01/07 00:39:39;;;;;;;15.63;8.13;;;;;;;3.12;75.49;100447.00;10453693;28;20074;-61
2022/01/07 00:44:42;;;;;;;12.25;8.52;;;;;;;3.13;75.55;100453.97;10454927;28;20076;-61
2022/01/07 00:49:44;;;;;;;11.38;8.25;;;;;;;3.14;75.36;100450.41;10454185;28;20403;-61
2022/01/07 00:54:45;;;;;;;12.73;8.15;;;;;;;3.09;75.99;100452.41;10458296;28;20728;-60
2022/01/07 00:59:47;;;;;;;12.70;8.32;;;;;;;2.99;76.61;100440.59;10452917;28;20266;-62
2022/01/07 01:04:48;;;;;;;12.13;8.85;;;;;;;3.03;76.41;100434.25;10456084;28;20044;-60
2022/01/07 01:09:49;;;;;;;13.88;8.25;;;;;;;3.12;76.31;100447.00;10482860;22;20040;-66
2022/01/07 01:14:51;;;;;;;14.75;9.10;;;;;;;2.91;77.40;100445.34;10483703;28;20482;-64
2022/01/07 01:19:52;;;;;;;12.55;8.73;;;;;;;2.73;78.44;100442.66;10486601;28;20052;-65
2022/01/07 01:24:54;;;;;;;15.38;8.75;;;;;;;2.71;78.84;100444.47;10475936;28;20048;-65
2022/01/07 01:29:55;;;;;;;12.00;8.40;;;;;;;2.72;79.00;100432.16;10471826;28;20422;-65
2022/01/07 01:34:57;;;;;;;13.35;9.43;;;;;;;2.79;78.77;100423.09;10462872;28;20036;-65
2022/01/07 01:39:58;;;;;;;13.73;8.70;;;;;;;2.86;78.56;100429.78;10488245;28;20040;-67
2022/01/07 01:44:59;;;;;;;13.80;8.98;;;;;;;2.86;78.59;100428.94;10486645;28;20048;-66
2022/01/07 01:50:03;;;;;;;9.27;7.78;;;;;;;2.80;78.78;100419.56;10472459;28;20147;-64
2022/01/07 01:55:05;;;;;;;12.90;8.98;;;;;;;2.88;78.44;100411.31;10466682;28;20048;-64
2022/01/07 02:00:09;;;;;;;16.60;10.07;;;;;;;2.86;78.65;100416.63;10481179;28;20066;-64
2022/01/07 02:05:10;;;;;;;13.43;8.23;;;;;;;2.74;79.05;100398.81;10484746;28;20378;-65
2022/01/07 02:10:14;;;;;;;14.07;8.70;;;;;;;2.74;79.17;100391.75;10493337;28;20048;-65
2022/01/07 02:15:16;;;;;;;12.27;9.02;;;;;;;2.79;78.93;100376.66;10490183;28;20258;-65
2022/01/07 02:20:22;;;;;;;15.40;9.07;;;;;;;2.79;79.02;100371.38;10486494;28;20056;-65
2022/01/07 02:25:24;;;;;;;13.13;9.07;;;;;;;2.88;78.58;100361.34;10481468;28;20589;-65
2022/01/07 02:30:28;;;;;;;10.55;9.15;;;;;;;2.82;78.98;100359.84;10492156;28;20048;-65
2022/01/07 02:35:32;;;;;;;14.40;8.88;;;;;;;2.80;79.17;100357.28;10490201;28;20345;-64
2022/01/07 02:40:34;;;;;;;12.65;8.90;;;;;;;2.90;79.03;100343.72;10468591;28;20145;-64
2022/01/07 02:45:35;;;;;;;14.93;9.20;;;;;;;2.88;79.13;100348.19;10485464;28;20474;-64
2022/01/07 02:50:38;;;;;;;15.35;9.95;;;;;;;3.00;78.34;100342.34;10490314;28;20050;-64
2022/01/07 02:55:40;;;;;;;12.55;9.77;;;;;;;2.82;78.95;100339.69;10480116;28;20044;-65
2022/01/07 03:00:42;;;;;;;14.57;9.20;;;;;;;2.71;79.39;100322.72;10481080;28;20047;-64
2022/01/07 03:05:43;;;;;;;14.65;9.32;;;;;;;2.66;79.71;100330.81;10482391;28;20251;-65
2022/01/07 03:10:44;;;;;;;14.98;10.13;;;;;;;2.67;79.89;100332.50;10490155;28;20052;-64
2022/01/07 03:15:46;;;;;;;16.10;9.40;;;;;;;2.65;79.68;100319.44;10482637;28;20056;-65
2022/01/07 03:20:47;;;;;;;16.35;10.07;;;;;;;2.65;79.71;100316.81;10481623;28;20644;-65
2022/01/07 03:25:49;;;;;;;13.80;9.93;;;;;;;2.68;79.50;100307.94;10476606;28;20052;-64
2022/01/07 03:30:50;;;;;;;14.55;10.48;;;;;;;2.76;79.18;100308.44;10489332;28;20056;-65
2022/01/07 03:35:52;;;;;;;14.05;9.43;;;;;;;2.70;79.29;100299.97;10493883;28;20056;-65
2022/01/07 03:40:54;;;;;;;14.98;9.05;;;;;;;2.65;79.71;100300.19;10482087;28;20542;-64
2022/01/07 03:45:56;;;;;;;11.98;9.40;;;;;;;2.68;79.54;100300.03;10491138;28;20049;-65
2022/01/07 03:50:57;;;;;;;12.32;9.98;;;;;;;2.74;78.77;100291.88;10485944;28;20051;-64
2022/01/07 03:55:58;;;;;;;12.40;8.73;;;;;;;2.79;78.31;100289.00;10483052;28;20057;-65
2022/01/07 04:01:00;;;;;;;13.40;9.25;;;;;;;2.90;78.25;100285.88;10482327;28;20136;-65
2022/01/07 04:06:02;;;;;;;15.45;8.43;;;;;;;2.85;78.29;100275.56;10490909;28;20044;-64
2022/01/07 04:11:03;;;;;;;10.63;9.02;;;;;;;2.82;78.11;100273.97;10481615;28;20066;-65
2022/01/07 04:16:05;;;;;;;14.57;9.77;;;;;;;2.75;78.55;100269.91;10484750;28;20655;-64
2022/01/07 04:21:06;;;;;;;12.45;8.93;;;;;;;2.65;78.86;100268.66;10498165;28;20051;-64
2022/01/07 04:26:08;;;;;;;13.25;8.32;;;;;;;2.62;78.96;100268.78;10490400;28;20048;-64
2022/01/07 04:31:09;;;;;;;15.38;8.80;;;;;;;2.55;79.06;100257.75;10474840;28;20445;-64
2022/01/07 04:36:10;;;;;;;14.00;8.70;;;;;;;2.55;79.21;100262.13;10484954;28;20513;-64
2022/01/07 04:41:12;;;;;;;13.15;8.70;;;;;;;2.51;79.34;100265.81;10498481;28;20135;-65
2022/01/07 04:46:14;;;;;;;11.43;8.70;;;;;;;2.35;80.01;100256.03;10474966;28;20044;-64
2022/01/07 04:51:16;;;;;;;10.02;8.13;;;;;;;2.50;79.98;100251.81;10493422;28;20087;-65
2022/01/07 04:56:17;;;;;;;13.95;9.20;;;;;;;2.64;79.03;100243.28;10488958;28;20044;-64
2022/01/07 05:01:18;;;;;;;10.95;8.63;;;;;;;2.73;79.09;100245.50;10496680;28;20048;-65
2022/01/07 05:11:21;;;;;;;12.15;9.45;;;;;;;2.76;78.53;100245.34;10496866;28;20505;-65
2022/01/07 05:16:24;;;;;;;17.20;9.02;;;;;;;2.64;78.91;100232.75;10488333;28;20131;-65
2022/01/07 05:21:25;;;;;;;12.60;9.52;;;;;;;2.70;79.06;100224.59;10479967;28;20048;-64
2022/01/07 05:26:27;;;;;;;13.30;9.48;;;;;;;2.82;78.54;100228.41;10498231;28;20296;-65
2022/01/07 05:31:28;;;;;;;12.75;9.23;;;;;;;2.85;78.85;100217.72;10495369;28;20497;-65
2022/01/07 05:36:30;;;;;;;14.82;9.90;;;;;;;2.63;78.86;100212.69;10503970;28;20136;-64
2022/01/07 05:41:32;;;;;;;14.00;9.00;;;;;;;2.77;78.82;100209.38;10510203;28;20067;-64
2022/01/07 05:46:34;;;;;;;10.95;8.02;;;;;;;2.68;78.38;100202.78;10498842;28;20074;-65
2022/01/07 05:51:35;;;;;;;15.75;9.38;;;;;;;2.75;78.79;100206.00;10487931;28;20134;-65
2022/01/07 05:56:36;;;;;;;12.45;8.43;;;;;;;2.75;78.65;100206.00;10497204;28;20059;-65
2022/01/07 06:01:38;;;;;;;14.02;9.27;;;;;;;2.72;78.47;100196.47;10484801;28;20074;-65
2022/01/07 06:06:39;;;;;;;14.55;9.60;;;;;;;2.70;78.62;100193.03;10492659;28;20476;-65
2022/01/07 06:11:41;;;;;;;12.02;8.23;;;;;;;2.67;78.76;100202.88;10465598;28;20052;-64
2022/01/07 06:16:42;;;;;;;10.93;8.77;;;;;;;2.72;78.27;100199.09;10488095;28;21666;-65
2022/01/07 06:21:44;;;;;;;11.73;8.98;;;;;;;2.72;78.11;100185.94;10492880;28;20568;-65
2022/01/07 06:26:45;;;;;;;12.88;9.15;;;;;;;2.83;77.84;100181.00;10470195;28;20626;-65
2022/01/07 06:31:46;;;;;;;11.65;8.93;;;;;;;2.87;77.61;100171.19;10470174;28;20162;-65
2022/01/07 06:36:49;;;;;;;16.23;8.43;;;;;;;2.67;77.58;100164.28;10469062;28;20056;-64
2022/01/07 06:41:51;;;;;;;13.23;8.07;;;;;;;2.62;77.99;100179.44;10487379;28;20112;-65
2022/01/07 06:46:52;;;;;;;11.77;8.35;;;;;;;2.64;77.77;100172.31;10486919;28;20113;-65
2022/01/07 06:51:55;;;;;;;12.65;8.88;;;;;;;2.59;78.10;100179.59;10489625;28;20056;-65
2022/01/07 06:56:56;;;;;;;12.27;8.63;;;;;;;2.59;78.11;100172.53;10468932;28;20050;-66
2022/01/07 07:01:58;;;;;;;9.65;8.48;;;;;;;2.75;78.72;100169.19;10468015;28;20048;-63
2022/01/07 07:06:59;;;;;;;17.38;10.15;;;;;;;2.79;78.29;100166.31;10468501;28;20047;-64
2022/01/07 07:12:01;;;;;;;13.68;8.15;;;;;;;2.71;77.81;100165.84;10488205;28;20364;-65
2022/01/07 07:17:03;;;;;;;14.90;9.02;;;;;;;2.60;77.78;100176.03;10470399;28;21005;-65
2022/01/07 07:22:04;;;;;;;12.35;9.05;;;;;;;2.63;78.42;100191.66;10482949;28;20480;-65
2022/01/07 07:27:06;;;;;;;15.00;10.25;;;;;;;2.51;79.95;100192.22;10490355;28;20102;-65
2022/01/07 07:32:09;;;;;;;12.35;9.70;;;;;;;2.50;81.81;100180.03;10481672;28;20052;-64
2022/01/07 07:37:13;;;;;;;11.82;10.63;;;;;;;2.37;83.04;100183.25;10486484;28;20420;-65
2022/01/07 07:42:14;;;;;;;13.07;10.07;;;;;;;2.43;83.22;100175.09;10482645;28;20074;-64
2022/01/07 07:47:16;;;;;;;13.73;10.95;;;;;;;2.28;84.49;100176.66;10480387;28;20056;-64
2022/01/07 07:52:18;;;;;;;13.55;11.10;;;;;;;2.38;84.33;100181.47;10486926;28;20525;-63
2022/01/07 07:57:19;;;;;;;13.48;11.30;;;;;;;2.42;84.27;100168.13;10487020;28;20048;-63
2022/01/07 08:02:21;;;;;;;14.63;10.32;;;;;;;2.30;84.58;100159.03;10478712;28;20051;-68
2022/01/07 08:07:23;;;;;;;14.45;9.85;;;;;;;2.13;85.95;100153.72;10469397;28;20040;-65
2022/01/07 08:12:39;;;;;;;12.88;10.35;;;;;;;1.91;88.04;100159.16;10481794;28;20051;-64
2022/01/07 08:17:40;;;;;;;14.82;9.75;;;;;;;2.05;87.98;100140.97;10484644;28;20508;-64
2022/01/07 08:22:42;;;;;;;14.55;10.68;;;;;;;1.94;88.48;100135.38;10479653;28;20044;-64
2022/01/07 08:27:43;;;;;;;13.80;10.38;;;;;;;2.06;87.71;100119.03;10486495;28;20193;-64
2022/01/07 08:38:05;;;;;;;15.52;10.48;;;;;;;2.02;87.70;100112.22;10484245;28;20036;-65
2022/01/07 08:43:08;;;;;;;12.35;10.23;;;;;;;1.99;88.29;100101.03;10478632;28;20090;-66
2022/01/07 08:48:09;;;;;;;12.45;10.30;;;;;;;2.18;87.80;100111.47;10482627;28;20059;-65
2022/01/07 08:53:12;;;;;;;15.45;10.60;;;;;;;2.03;87.65;100108.69;10461665;28;20055;-64
2022/01/07 08:58:13;;;;;;;13.93;9.88;;;;;;;2.17;87.93;100112.44;10484346;28;20058;-65
2022/01/07 09:03:15;;;;;;;15.68;11.32;;;;;;;2.23;87.13;100107.72;10486973;28;20051;-64
2022/01/07 09:08:16;;;;;;;13.65;11.10;;;;;;;2.25;87.51;100103.25;10491313;28;20056;-65
2022/01/07 09:13:20;;;;;;;14.43;11.23;;;;;;;2.23;87.27;100117.38;10491276;28;20048;-64
2022/01/07 09:18:21;;;;;;;14.65;12.02;;;;;;;2.14;88.10;100110.78;10482546;28;20052;-64
2022/01/07 09:23:22;;;;;;;17.88;12.43;;;;;;;2.08;88.47;100106.69;10484278;28;20140;-64
2022/01/07 09:28:24;;;;;;;15.18;11.40;;;;;;;2.09;88.51;100111.00;10475527;28;20131;-64
2022/01/07 09:33:25;;;;;;;13.15;10.82;;;;;;;1.95;89.25;100105.56;10466769;28;20132;-64
2022/01/07 09:38:47;;;;;;;12.38;9.98;;;;;;;1.84;90.43;100103.44;10492237;28;20521;-64
2022/01/07 09:43:48;;;;;;;14.20;11.50;;;;;;;1.86;90.38;100092.88;10488912;28;20098;-64
2022/01/07 09:48:50;;;;;;;14.50;10.02;;;;;;;1.99;89.84;100086.13;10475555;28;20051;-64
2022/01/07 09:53:52;;;;;;;13.07;10.45;;;;;;;1.94;90.22;100077.63;10486819;28;20276;-64
2022/01/07 09:58:53;;;;;;;12.55;10.13;;;;;;;1.95;90.19;100066.16;10482617;28;20088;-63
2022/01/07 10:03:56;;;;;;;14.10;10.50;;;;;;;1.90;90.09;100076.06;10488506;28;20059;-65
2022/01/07 10:09:07;;;;;;;12.35;9.07;;;;;;;1.94;90.08;100075.00;10484993;28;20891;-64
2022/01/07 10:14:21;;;;;;;16.05;11.25;;;;;;;2.05;89.87;100075.31;10488105;28;20048;-65
2022/01/07 10:19:43;;;;;;;13.18;9.82;;;;;;;2.14;89.66;100054.81;10482794;28;20048;-64
2022/01/07 10:24:54;;;;;;;11.57;9.95;;;;;;;2.02;89.67;100075.47;10487181;28;20048;-63
2022/01/07 10:29:55;;;;;;;13.07;9.63;;;;;;;2.08;90.49;100058.56;10487531;28;20193;-64
2022/01/07 10:35:14;;;;;;;12.82;10.60;;;;;;;2.03;90.77;100039.56;10489302;28;20147;-63
2022/01/07 10:40:19;;;;;;;13.80;10.80;;;;;;;2.09;89.08;100050.63;10481211;28;20142;-63
2022/01/07 10:45:21;;;;;;;13.00;9.68;;;;;;;2.24;89.89;100037.69;10484653;28;20341;-63
2022/01/07 10:50:27;;;;;;;13.68;10.05;;;;;;;2.21;88.86;100029.94;10481234;28;20059;-63
2022/01/07 10:55:28;;;;;;;14.10;10.73;;;;;;;2.41;88.74;100032.41;10479572;28;20040;-63
2022/01/07 11:00:36;;;;;;;17.83;11.32;;;;;;;2.43;87.64;100033.19;10481292;28;20048;-64
2022/01/07 11:05:42;;;;;;;12.30;10.93;;;;;;;2.39;87.89;100036.91;10483072;28;20127;-63
2022/01/07 11:10:43;;;;;;;12.70;10.57;;;;;;;2.45;87.72;100036.59;10482081;28;20422;-64
2022/01/07 11:15:45;;;;;;;16.25;10.65;;;;;;;2.48;88.12;100025.09;10467236;28;20058;-62
2022/01/07 11:20:47;;;;;;;12.68;9.75;;;;;;;2.46;87.80;100012.03;10483541;28;20052;-63
2022/01/07 11:26:01;;;;;;;15.25;11.27;;;;;;;2.37;87.79;100002.00;10467630;28;20050;-64
2022/01/07 11:31:10;;;;;;;13.40;10.60;;;;;;;2.55;87.88;100000.22;10483157;28;20388;-63
2022/01/07 11:36:32;;;;;;;13.52;10.27;;;;;;;2.51;87.42;99982.88;10479388;28;20097;-63
2022/01/07 11:41:56;;;;;;;10.20;8.23;;;;;;;2.85;86.96;99986.38;10483082;28;20635;-65
2022/01/07 11:47:12;;;;;;;10.63;8.63;;;;;;;2.76;86.09;99993.00;10482513;28;20679;-64
2022/01/07 11:52:34;;;;;;;13.48;9.18;;;;;;;2.73;86.28;99985.25;10482639;28;20052;-63
2022/01/07 11:57:55;;;;;;;12.10;9.73;;;;;;;2.75;86.08;99985.19;10483029;28;20129;-64
2022/01/07 12:03:01;;;;;;;10.35;8.38;;;;;;;2.65;86.53;99987.44;10462533;28;20041;-62
2022/01/07 12:08:02;;;;;;;10.20;8.23;;;;;;;2.82;86.35;99984.78;10458559;28;20403;-64
2022/01/07 12:13:04;;;;;;;10.25;8.18;;;;;;;2.72;85.78;99980.94;10470288;28;20070;-65
2022/01/07 12:18:09;;;;;;;12.32;8.10;;;;;;;2.74;85.91;99980.84;10486729;28;20673;-64
2022/01/07 12:23:18;;;;;;;10.27;8.48;;;;;;;2.75;86.22;99962.38;10466483;28;20613;-63
2022/01/07 12:28:21;;;;;;;10.77;8.13;;;;;;;2.68;86.22;99950.47;10481226;28;20048;-63
2022/01/07 12:33:23;;;;;;;10.02;7.85;;;;;;;2.74;86.43;99952.78;10480187;28;20052;-64
2022/01/07 12:38:24;;;;;;;8.85;7.95;;;;;;;2.78;85.99;99948.22;10492066;28;20071;-63
2022/01/07 12:43:32;;;;;;;8.65;6.60;;;;;;;2.84;86.09;99926.84;10473613;28;20040;-63
2022/01/07 12:48:39;;;;;;;9.68;7.70;;;;;;;2.75;86.10;99920.31;10493559;28;20068;-63
2022/01/07 12:53:54;;;;;;;9.43;7.03;;;;;;;2.86;85.96;99937.28;10488031;28;20052;-63
2022/01/07 12:58:57;;;;;;;10.38;7.90;;;;;;;2.87;86.11;99920.56;10493730;28;20601;-63
2022/01/07 13:04:13;;;;;;;9.25;7.13;;;;;;;2.85;86.49;99923.28;10471660;28;20583;-64
2022/01/07 13:09:23;;;;;;;9.80;7.45;;;;;;;2.99;85.80;99912.03;10478472;28;20052;-64
2022/01/07 13:14:27;;;;;;;8.85;6.75;;;;;;;2.95;85.67;99913.13;10472253;28;20082;-62
2022/01/07 13:19:28;;;;;;;10.98;7.22;;;;;;;2.92;86.01;99923.81;10488149;28;20122;-62
2022/01/07 13:24:29;;;;;;;6.63;5.93;;;;;;;2.98;85.88;99923.47;10485770;28;20058;-63
2022/01/07 13:29:32;;;;;;;8.73;6.35;;;;;;;3.01;86.14;99936.44;10487378;28;20056;-62
2022/01/07 13:34:37;;;;;;;7.20;5.88;;;;;;;3.03;85.89;99937.22;10484477;28;20174;-61
2022/01/07 13:39:44;;;;;;;8.18;6.45;;;;;;;3.05;85.83;99935.38;10470813;28;20101;-63
2022/01/07 13:45:02;;;;;;;9.02;7.00;;;;;;;3.03;85.88;99931.13;10467188;28;20730;-63
2022/01/07 13:50:07;;;;;;;7.35;6.32;;;;;;;3.10;85.83;99943.84;10489385;28;20051;-63
2022/01/07 13:55:26;;;;;;;8.18;6.50;;;;;;;3.16;85.04;99927.72;10481141;28;20143;-62
2022/01/07 14:00:29;;;;;;;7.18;6.38;;;;;;;3.21;85.27;99918.72;10467504;28;20540;-64
2022/01/07 14:05:31;;;;;;;7.15;5.60;;;;;;;3.27;84.98;99921.03;10488084;28;20047;-63
2022/01/07 14:10:35;;;;;;;8.10;6.82;;;;;;;3.18;85.89;99925.00;10485636;28;20291;-62
2022/01/07 14:15:48;;;;;;;7.68;6.03;;;;;;;3.24;86.18;99929.09;10486239;28;20049;-63
2022/01/07 14:20:58;;;;;;;5.82;5.00;;;;;;;3.17;86.29;99924.16;10487870;28;20059;-63
2022/01/07 14:26:09;;;;;;;6.72;5.65;;;;;;;3.31;86.18;99914.66;10490405;28;20047;-65
2022/01/07 14:31:13;;;;;;;7.18;5.65;;;;;;;3.25;86.32;99912.38;10465997;28;20410;-65
2022/01/07 14:36:16;;;;;;;8.43;6.47;;;;;;;3.22;87.03;99920.44;10488753;28;20078;-64
2022/01/07 14:41:20;;;;;;;8.13;6.22;;;;;;;3.18;87.20;99904.84;10484547;28;21027;-64
2022/01/07 14:46:21;;;;;;;6.40;5.65;;;;;;;3.10;88.03;99909.66;10484877;28;20529;-64
2022/01/07 14:51:23;;;;;;;9.45;5.82;;;;;;;3.10;88.52;99912.28;10465113;28;20106;-66
2022/01/07 14:56:25;;;;;;;6.07;5.47;;;;;;;3.14;88.56;99913.81;10485694;28;20058;-66
2022/01/07 15:01:26;;;;;;;7.93;6.13;;;;;;;3.24;87.25;99902.78;10473322;28;20048;-63
2022/01/07 15:06:28;;;;;;;7.63;6.82;;;;;;;3.27;87.74;99897.34;10479625;28;20413;-63
2022/01/07 15:11:29;;;;;;;8.65;5.55;;;;;;;3.34;86.99;99909.22;10474192;28;20162;-64
2022/01/07 15:16:38;;;;;;;7.85;5.82;;;;;;;3.39;87.01;99908.97;10482595;28;20059;-61
2022/01/07 15:21:39;;;;;;;7.28;5.55;;;;;;;3.46;86.28;99919.06;10480954;28;20051;-63
2022/01/07 15:26:42;;;;;;;6.20;5.60;;;;;;;3.47;86.02;99925.19;10483484;28;20054;-63
2022/01/07 15:31:44;;;;;;;6.82;5.53;;;;;;;3.45;86.64;99917.38;10465863;28;20044;-63
2022/01/07 15:36:46;;;;;;;7.13;5.60;;;;;;;3.46;86.29;99921.69;10482765;28;20070;-63
2022/01/07 15:41:49;;;;;;;6.10;5.50;;;;;;;3.50;86.18;99915.31;10483766;28;20058;-66
2022/01/07 15:46:51;;;;;;;7.68;6.20;;;;;;;3.50;86.68;99911.84;10485007;28;20071;-63
2022/01/07 15:51:55;;;;;;;5.68;4.50;;;;;;;3.37;87.07;99911.69;10458160;28;20052;-64
2022/01/07 15:56:56;;;;;;;7.22;5.57;;;;;;;3.37;87.88;99906.44;10475571;28;20059;-65
2022/01/07 16:01:58;;;;;;;5.93;5.40;;;;;;;3.33;87.96;99907.53;10458910;28;20063;-64
2022/01/07 16:07:00;;;;;;;6.45;5.78;;;;;;;3.35;87.92;99911.78;10465005;28;20048;-65
2022/01/07 16:12:02;;;;;;;7.10;5.65;;;;;;;3.33;87.55;99908.41;10469138;28;20499;-65
2022/01/07 16:17:04;;;;;;;5.97;5.18;;;;;;;3.32;88.36;99913.75;10491302;28;20063;-65
2022/01/07 16:22:05;;;;;;;8.05;5.90;;;;;;;3.23;88.85;99898.44;10475224;28;20114;-65
2022/01/07 16:27:06;;;;;;;6.82;6.13;;;;;;;3.18;88.85;99899.56;10478419;28;20048;-65
2022/01/07 16:32:08;;;;;;;8.48;6.32;;;;;;;3.19;88.87;99892.53;10469520;28;20521;-64
2022/01/07 16:37:10;;;;;;;7.13;6.43;;;;;;;3.24;89.07;99898.34;10490058;28;20130;-64
2022/01/07 16:42:11;;;;;;;7.43;6.72;;;;;;;3.06;89.69;99886.25;10459779;28;20163;-65
2022/01/07 16:47:13;;;;;;;7.50;6.35;;;;;;;3.11;89.82;99871.06;10453411;28;20169;-65
2022/01/07 16:52:15;;;;;;;8.57;7.50;;;;;;;3.08;90.06;99887.00;10476818;28;20048;-66
2022/01/07 16:57:16;;;;;;;9.30;8.38;;;;;;;3.24;89.62;99889.63;10474728;28;20587;-65
2022/01/07 17:02:18;;;;;;;7.78;7.07;;;;;;;3.17;89.43;99891.75;10467729;28;20063;-65
2022/01/07 17:07:20;;;;;;;9.00;7.90;;;;;;;3.05;89.77;99895.91;10437585;28;20425;-66
2022/01/07 17:12:22;;;;;;;11.85;8.38;;;;;;;3.06;89.89;99884.44;10477094;28;20847;-65
2022/01/07 17:17:23;;;;;;;7.88;7.05;;;;;;;2.97;90.25;99884.94;10471886;28;20040;-65
2022/01/07 17:22:25;;;;;;;9.40;8.02;;;;;;;2.93;91.11;99868.50;10485608;28;20166;-65
2022/01/07 17:27:26;;;;;;;9.85;8.07;;;;;;;2.81;90.91;99859.50;10486599;28;20052;-65
2022/01/07 17:32:28;;;;;;;8.90;7.97;;;;;;;2.92;91.12;99860.72;10486873;28;20057;-66
2022/01/07 17:37:29;;;;;;;8.55;7.65;;;;;;;3.00;91.35;99866.38;10488097;28;20225;-64
2022/01/07 17:42:30;;;;;;;9.38;7.47;;;;;;;3.08;90.21;99861.56;10494836;28;20056;-67
2022/01/07 17:47:32;;;;;;;8.57;7.20;;;;;;;3.15;89.96;99872.56;10492101;28;20051;-65
2022/01/07 17:52:33;;;;;;;8.13;7.32;;;;;;;3.12;89.97;99868.34;10473310;28;20337;-66
2022/01/07 17:57:41;;;;;;;7.35;6.65;;;;;;;3.08;90.22;99869.44;10473068;28;20052;-62
2022/01/07 18:02:42;;;;;;;8.52;7.43;;;;;;;3.10;90.74;99877.25;10448059;28;20054;-62
2022/01/07 18:07:44;;;;;;;8.00;7.20;;;;;;;3.16;90.74;99871.66;10424322;28;20134;-64
2022/01/07 18:12:45;;;;;;;8.68;7.40;;;;;;;3.15;90.19;99883.97;10440047;28;20109;-63
2022/01/07 18:17:47;;;;;;;7.22;5.78;;;;;;;3.18;90.26;99889.03;10449688;28;20056;-62
2022/01/07 18:22:48;;;;;;;6.53;5.60;;;;;;;3.22;90.13;99879.19;10483857;28;20502;-66
2022/01/07 18:27:56;;;;;;;7.47;5.88;;;;;;;3.27;89.71;99897.34;10438047;28;20593;-67
2022/01/07 18:32:58;;;;;;;7.75;6.35;;;;;;;3.21;90.25;99868.75;10444826;28;20126;-66
2022/01/07 18:38:09;;;;;;;6.03;5.50;;;;;;;3.22;90.55;99892.34;10467822;28;20795;-64
2022/01/07 18:43:11;;;;;;;6.50;5.63;;;;;;;3.17;90.79;99884.72;10480946;28;20098;-64
2022/01/07 18:48:12;;;;;;;5.10;4.60;;;;;;;3.13;90.45;99867.41;10485996;28;20127;-66
2022/01/07 18:53:14;;;;;;;7.75;5.95;;;;;;;3.12;90.95;99868.34;10465845;28;20561;-65
2022/01/07 18:58:16;;;;;;;6.07;5.15;;;;;;;3.07;91.34;99870.38;10484242;28;20048;-66
2022/01/07 19:03:22;;;;;;;5.40;4.68;;;;;;;3.15;91.04;99862.06;10464747;28;20048;-65
2022/01/07 19:08:24;;;;;;;6.28;5.57;;;;;;;3.51;93.08;99853.00;10484844;28;20386;-70
2022/01/07 19:13:26;;;;;;;5.10;4.30;;;;;;;3.64;88.72;99846.09;10484428;28;20658;-65
2022/01/07 19:18:27;;;;;;;5.68;3.67;;;;;;;3.36;88.32;99846.84;10488757;28;20138;-65
2022/01/07 19:23:29;;;;;;;3.63;3.30;;;;;;;3.29;89.39;99842.88;10470002;28;20048;-67
2022/01/07 19:28:30;;;;;;;3.90;3.50;;;;;;;3.24;89.18;99847.53;10470392;28;20139;-65
2022/01/07 19:33:32;;;;;;;3.97;3.40;;;;;;;3.27;88.34;99839.47;10485599;28;20045;-65
2022/01/07 19:38:34;;;;;;;3.17;2.83;;;;;;;3.26;88.43;99832.50;10489549;28;20089;-65
2022/01/07 19:43:37;;;;;;;3.45;2.70;;;;;;;3.26;88.44;99824.59;10482741;28;20121;-66
2022/01/07 19:48:39;;;;;;;3.45;2.75;;;;;;;3.27;87.64;99824.56;10481551;28;20048;-65
2022/01/07 19:53:40;;;;;;;3.75;3.45;;;;;;;3.28;87.82;99818.34;10473986;28;20040;-66
2022/01/07 19:58:42;;;;;;;3.00;2.45;;;;;;;3.37;87.92;99819.59;10481382;28;20485;-66
2022/01/07 20:03:43;;;;;;;4.03;3.05;;;;;;;3.42;87.23;99814.06;10478192;28;20049;-65
2022/01/07 20:08:45;;;;;;;4.78;3.33;;;;;;;3.52;86.42;99820.50;10465874;28;20108;-63
2022/01/07 20:13:46;;;;;;;4.20;3.38;;;;;;;3.52;86.64;99821.34;10476629;28;20062;-63
2022/01/07 20:18:48;;;;;;;3.72;3.42;;;;;;;3.52;86.10;99823.97;10475339;28;20229;-63
2022/01/07 20:23:50;;;;;;;5.88;4.75;;;;;;;3.67;85.45;99827.50;10477482;28;20154;-65
2022/01/07 20:28:52;;;;;;;4.93;3.20;;;;;;;3.66;85.40;99807.38;10465335;28;20062;-66
2022/01/07 20:33:53;;;;;;;3.40;3.03;;;;;;;3.64;84.97;99805.78;10478817;28;20139;-65
2022/01/07 20:38:54;;;;;;;3.28;2.97;;;;;;;3.53;84.94;99799.34;10481221;28;20056;-66
2022/01/07 20:43:56;;;;;;;3.53;2.70;;;;;;;3.49;85.68;99803.09;10472596;28;20398;-64
2022/01/07 20:49:00;;;;;;;3.33;3.03;;;;;;;3.52;85.55;99795.00;10481492;28;20131;-66
2022/01/07 20:54:02;;;;;;;4.77;4.00;;;;;;;3.60;84.87;99789.28;10486406;28;20064;-66
2022/01/07 20:59:05;;;;;;;3.90;3.13;;;;;;;3.56;84.86;99781.69;10496253;28;20146;-66
2022/01/07 21:04:06;;;;;;;4.20;3.80;;;;;;;3.46;85.86;99784.84;10476194;28;20164;-68
2022/01/07 21:09:09;;;;;;;3.90;3.50;;;;;;;3.40;86.38;99793.09;10477283;28;20817;-65
2022/01/07 21:14:11;;;;;;;4.28;3.78;;;;;;;3.45;86.37;99774.41;10487169;28;20056;-66
2022/01/07 21:19:12;;;;;;;4.63;3.90;;;;;;;3.42;86.46;99800.91;10466779;28;20193;-66
2022/01/07 21:24:14;;;;;;;3.92;3.58;;;;;;;3.43;86.64;99785.03;10487202;28;20135;-66
2022/01/07 21:29:16;;;;;;;4.25;3.85;;;;;;;3.54;86.14;99780.00;10483718;28;20139;-65
2022/01/07 21:34:17;;;;;;;4.90;4.25;;;;;;;3.49;86.00;99782.03;10483868;28;20242;-66
2022/01/07 21:39:19;;;;;;;5.43;4.90;;;;;;;3.44;86.99;99772.72;10488071;28;20669;-65
2022/01/07 21:44:20;;;;;;;4.40;3.72;;;;;;;3.63;86.58;99768.06;10489315;28;20110;-65
2022/01/07 21:49:23;;;;;;;4.68;4.28;;;;;;;3.63;86.36;99768.06;10468750;28;20130;-66
2022/01/07 21:54:24;;;;;;;5.00;4.15;;;;;;;3.49;86.46;99753.09;10486022;28;20473;-63
2022/01/07 21:59:25;;;;;;;5.07;4.57;;;;;;;3.42;86.90;99750.91;10489205;28;20062;-64
2022/01/07 22:04:27;;;;;;;4.70;4.20;;;;;;;3.39;87.52;99751.94;10472577;28;20070;-66
2022/01/07 22:09:29;;;;;;;5.13;4.63;;;;;;;3.47;87.29;99736.56;10491772;28;20054;-65
2022/01/07 22:14:31;;;;;;;5.57;4.68;;;;;;;3.54;87.06;99732.63;10509530;28;20326;-63
2022/01/07 22:19:33;;;;;;;6.40;5.05;;;;;;;3.42;87.15;99728.06;10527810;28;20052;-63
2022/01/07 22:24:34;;;;;;;5.97;5.22;;;;;;;3.39;87.74;99716.91;10481241;28;20135;-66
2022/01/07 22:29:36;;;;;;;5.88;5.38;;;;;;;3.39;87.85;99707.22;10472827;28;21520;-64
2022/01/07 22:34:38;;;;;;;5.80;4.85;;;;;;;3.38;88.12;99702.91;10491128;28;20549;-65
2022/01/07 22:39:49;;;;;;;5.93;5.15;;;;;;;3.39;88.06;99698.47;10478330;28;20048;-64
2022/01/07 22:44:51;;;;;;;6.40;5.80;;;;;;;3.62;87.55;99703.22;10464078;28;20709;-66
2022/01/07 22:49:52;;;;;;;6.68;6.10;;;;;;;3.68;87.55;99691.47;10487131;28;20509;-64
2022/01/07 22:54:53;;;;;;;7.05;6.30;;;;;;;3.71;87.37;99699.19;10482416;28;20058;-64
2022/01/07 22:59:55;;;;;;;7.60;6.90;;;;;;;3.58;88.22;99691.16;10462236;28;20044;-65
2022/01/07 23:04:56;;;;;;;8.73;6.57;;;;;;;3.55;88.89;99680.84;10488521;28;20086;-68
2022/01/07 23:09:57;;;;;;;7.20;6.30;;;;;;;3.58;89.27;99669.28;10472409;28;20056;-65
2022/01/07 23:15:01;;;;;;;7.68;6.78;;;;;;;3.53;89.90;99661.66;10481441;28;20127;-65
2022/01/07 23:20:03;;;;;;;7.82;6.85;;;;;;;3.66;89.32;99662.63;10484480;28;20192;-65
2022/01/07 23:25:06;;;;;;;8.23;6.57;;;;;;;3.77;89.60;99642.66;10481618;28;20044;-64
2022/01/07 23:30:08;;;;;;;8.45;7.53;;;;;;;3.80;89.27;99630.16;10483825;28;20133;-64
2022/01/07 23:35:10;;;;;;;9.07;7.90;;;;;;;3.79;89.15;99631.09;10472156;28;20473;-64
2022/01/07 23:40:14;;;;;;;9.02;7.38;;;;;;;3.79;88.56;99625.84;10486465;28;20119;-65